Flight Track Log - Related Links

Times and Time Zones

All times are in EDT time to prevent confusion due to time zone crossing. See the IBE475 flight status page for this flight to view local times or setup timezone preferences in your user account.

Time Position Orientation Groundspeed Altitude Reporting Facility
EDT Latitude Longitude Course Direction KTS MPH feet Rate Location/Type
Wed 08:22:00 AM 41.4711 -4.3226 148° Southeast  Level Estimated
Wed 08:23:00 AM 41.3902 -4.2590 149° Southeast  Level Estimated
Wed 08:24:00 AM 41.3092 -4.1955 150° Southeast  Level Estimated
Wed 08:25:00 AM 41.2281 -4.1322 150° Southeast  Level Estimated
Wed 08:26:00 AM 41.1470 -4.0691 150° Southeast  Level Estimated
Wed 08:27:00 AM 41.0659 -4.0061 150° Southeast  Level Estimated
Wed 08:28:00 AM 40.9848 -3.9433 150° Southeast  Level Estimated
Wed 08:29:00 AM 40.9036 -3.8806 150° Southeast  Level Estimated
Wed 08:30:00 AM 40.8224 -3.8181 150° Southeast  Level Estimated
Wed 08:31:00 AM 40.7411 -3.7557 150° Southeast  Level Estimated
Wed 08:32:00 AM 40.6599 -3.6935 150° Southeast  Level Estimated
Wed 08:33:00 AM 40.5785 -3.6314 150° Southeast  Level Estimated
Wed 08:34:00 AM 40.4972 -3.5695 150° Southeast  Level Estimated
Wed 08:35:00 AM 40.4936 -3.5668 150° Southeast  Level Estimated
Wed 08:36:00 AM 40.4936 -3.5668 217° Southwest  Level Estimated
Wed 08:37:00 AM 40.4936 -3.5668 217° Southwest  Level Estimated
Wed 08:38:00 AM 40.4936 -3.5668 217° Southwest  Level Estimated
Wed 08:39:00 AM 40.4936 -3.5668 217° Southwest  Level Estimated
Wed 08:40:00 AM 40.4936 -3.5668 217° Southwest  Level Estimated
Wed 08:41:00 AM 40.4936 -3.5668 217° Southwest  Level Estimated
Wed 08:42:00 AM 40.4936 -3.5668 217° Southwest  Level Estimated
Wed 08:43:00 AM 40.4936 -3.5668 217° Southwest  Level Estimated
Wed 08:44:00 AM 40.4936 -3.5668 217° Southwest  Level Estimated
Wed 08:45:00 AM 40.4936 -3.5668 217° Southwest  Level Estimated
Wed 08:46:00 AM 40.4936 -3.5668 217° Southwest  Level Estimated
Wed 08:47:00 AM 40.4936 -3.5668 217° Southwest  Level Estimated
Wed 08:48:00 AM 40.4936 -3.5668 217° Southwest  Level Estimated
Wed 08:49:00 AM 40.4936 -3.5668 217° Southwest  Level Estimated
Wed 08:50:00 AM 40.4936 -3.5668 217° Southwest  Level Estimated

Login

Don't have an account? Register now (free) for customized features, flight alerts, and more!